createdAt,value
2023-05-13T00:02:56.713Z,13.70
2023-05-13T00:07:59.182Z,13.60
2023-05-13T00:13:02.898Z,13.44
2023-05-13T00:18:05.140Z,13.46
2023-05-13T00:23:07.305Z,13.32
2023-05-13T00:28:10.823Z,13.18
2023-05-13T00:33:12.992Z,13.19
2023-05-13T00:38:15.081Z,13.01
2023-05-13T00:43:19.131Z,12.96
2023-05-13T00:48:22.201Z,12.80
2023-05-13T00:53:24.448Z,12.73
2023-05-13T00:58:28.017Z,12.74
2023-05-13T01:03:35.362Z,12.61
2023-05-13T01:08:46.808Z,12.44
2023-05-13T01:14:01.671Z,12.39
2023-05-13T01:19:13.699Z,12.38
2023-05-13T01:24:17.444Z,12.43
2023-05-13T01:29:19.676Z,12.34
2023-05-13T01:34:24.146Z,12.33
2023-05-13T01:39:30.857Z,12.21
2023-05-13T01:44:33.307Z,12.21
2023-05-13T01:49:35.661Z,12.28
2023-05-13T01:54:39.149Z,12.27
2023-05-13T01:59:41.435Z,12.31
2023-05-13T02:04:43.793Z,12.43
2023-05-13T02:09:47.159Z,12.40
2023-05-13T02:14:49.371Z,12.33
2023-05-13T02:19:51.077Z,12.19
2023-05-13T02:24:54.455Z,12.09
2023-05-13T02:29:56.389Z,12.12
2023-05-13T02:34:58.406Z,12.10
2023-05-13T02:40:01.732Z,12.01
2023-05-13T02:45:04.353Z,11.83
2023-05-13T02:50:07.836Z,11.84
2023-05-13T02:55:11.414Z,11.98
2023-05-13T03:00:14.665Z,12.03
2023-05-13T03:05:16.991Z,11.95
2023-05-13T03:10:20.719Z,11.95
2023-05-13T03:15:23.047Z,11.86
2023-05-13T03:20:25.145Z,11.83
2023-05-13T03:25:28.734Z,11.76
2023-05-13T03:30:30.956Z,11.62
2023-05-13T03:35:33.162Z,11.60
2023-05-13T03:40:36.623Z,11.58
2023-05-13T03:45:38.781Z,11.61
2023-05-13T03:50:40.743Z,11.63
2023-05-13T03:55:43.826Z,11.62
2023-05-13T04:00:45.972Z,11.59
2023-05-13T04:05:49.494Z,11.64
2023-05-13T04:10:53.036Z,11.68
2023-05-13T04:15:55.038Z,11.78
2023-05-13T04:20:57.219Z,11.82
2023-05-13T04:26:00.825Z,12.04
2023-05-13T04:31:03.017Z,12.24
2023-05-13T04:36:06.010Z,12.80
2023-05-13T04:41:09.522Z,14.37
2023-05-13T04:46:11.236Z,15.70
2023-05-13T04:51:13.060Z,16.17
2023-05-13T04:56:16.905Z,17.04
2023-05-13T05:01:19.064Z,17.51
2023-05-13T05:06:21.467Z,17.59
2023-05-13T05:11:24.842Z,17.81
2023-05-13T05:16:26.892Z,18.84
2023-05-13T05:21:29.141Z,19.41
2023-05-13T05:26:32.795Z,19.14
2023-05-13T05:31:35.194Z,20.13
2023-05-13T05:36:38.315Z,20.41
2023-05-13T05:41:42.001Z,21.32
2023-05-13T05:46:44.095Z,21.60
2023-05-13T05:51:46.047Z,20.77
2023-05-13T05:56:49.484Z,20.78
2023-05-13T06:01:51.370Z,21.00
2023-05-13T06:06:53.810Z,21.64
2023-05-13T06:11:57.220Z,21.69
2023-05-13T06:16:59.007Z,22.33
2023-05-13T06:22:03.211Z,22.72
2023-05-13T06:27:07.774Z,22.89
2023-05-13T06:32:09.997Z,22.02
2023-05-13T06:37:12.696Z,21.81
2023-05-13T06:42:16.464Z,21.81
2023-05-13T06:47:19.893Z,21.85
2023-05-13T06:52:23.311Z,21.59
2023-05-13T06:57:38.871Z,21.93
2023-05-13T07:02:44.305Z,22.74
2023-05-13T07:07:46.935Z,23.48
2023-05-13T07:12:50.257Z,25.40
2023-05-13T07:17:52.094Z,24.20
2023-05-13T07:22:54.205Z,24.08
2023-05-13T07:27:57.835Z,24.45
2023-05-13T07:32:59.722Z,24.03
2023-05-13T07:38:02.210Z,23.82
2023-05-13T07:43:05.634Z,24.08
2023-05-13T07:48:08.014Z,23.76
2023-05-13T07:53:10.430Z,24.10
2023-05-13T07:58:14.303Z,24.28
2023-05-13T08:03:16.375Z,23.59
2023-05-13T08:08:18.750Z,23.23
2023-05-13T08:13:21.889Z,23.95
2023-05-13T08:18:24.011Z,23.61
2023-05-13T08:23:40.366Z,23.35
2023-05-13T08:28:49.108Z,24.36
2023-05-13T08:33:52.145Z,24.74
2023-05-13T08:38:53.848Z,24.58
2023-05-13T08:43:58.677Z,23.89
2023-05-13T08:49:02.122Z,25.71
2023-05-13T08:54:04.685Z,24.71
2023-05-13T08:59:07.979Z,24.98
2023-05-13T09:04:11.048Z,26.58
2023-05-13T09:09:13.133Z,27.64
2023-05-13T09:14:19.530Z,25.55
2023-05-13T09:19:24.623Z,26.47
2023-05-13T09:24:26.888Z,28.35
2023-05-13T09:29:30.311Z,27.81
2023-05-13T09:34:35.164Z,27.45
2023-05-13T09:39:41.444Z,26.89
2023-05-13T09:44:46.166Z,25.72
2023-05-13T09:49:56.568Z,26.80
2023-05-13T09:54:59.009Z,28.69
2023-05-13T10:00:05.009Z,27.77
2023-05-13T10:05:09.855Z,27.97
2023-05-13T10:10:12.725Z,28.86
2023-05-13T10:15:16.493Z,28.37
2023-05-13T10:20:19.232Z,28.06
2023-05-13T10:25:21.807Z,26.77
2023-05-13T10:30:25.079Z,28.35
2023-05-13T10:35:31.592Z,26.68
2023-05-13T10:41:01.537Z,26.60
2023-05-13T10:46:06.841Z,26.08
2023-05-13T10:51:10.500Z,25.53
2023-05-13T10:56:12.395Z,25.32
2023-05-13T11:01:17.818Z,25.34
2023-05-13T11:06:21.804Z,25.01
2023-05-13T11:11:26.359Z,24.60
2023-05-13T11:16:29.959Z,24.55
2023-05-13T11:21:36.040Z,23.12
2023-05-13T11:26:49.376Z,23.35
2023-05-13T11:31:53.551Z,23.45
2023-05-13T11:37:06.228Z,24.55
2023-05-13T11:42:10.141Z,25.54
2023-05-13T11:47:13.916Z,25.11
2023-05-13T11:52:18.056Z,24.35
2023-05-13T11:57:21.763Z,24.18
2023-05-13T12:02:27.646Z,24.01
2023-05-13T12:07:30.515Z,23.91
2023-05-13T12:12:34.807Z,24.16
2023-05-13T12:17:38.141Z,23.10
2023-05-13T12:22:54.708Z,23.77
2023-05-13T12:27:56.778Z,23.55
2023-05-13T12:33:00.449Z,23.82
2023-05-13T12:38:04.300Z,23.57
2023-05-13T12:43:05.991Z,23.47
2023-05-13T12:48:10.400Z,25.03
2023-05-13T12:53:12.608Z,26.05
2023-05-13T12:58:14.488Z,24.75
2023-05-13T13:03:18.178Z,22.84
2023-05-13T13:08:20.563Z,23.21
2023-05-13T13:13:23.885Z,23.49
2023-05-13T13:18:27.706Z,23.62
2023-05-13T13:23:29.587Z,24.19
2023-05-13T13:28:31.606Z,23.19
2023-05-13T13:33:35.207Z,23.22
2023-05-13T13:38:37.255Z,23.94
2023-05-13T13:43:39.266Z,24.17
2023-05-13T13:48:42.403Z,23.33
2023-05-13T13:53:44.739Z,22.59
2023-05-13T13:58:46.996Z,22.67
2023-05-13T14:03:51.269Z,22.46
2023-05-13T14:08:53.630Z,23.14
2023-05-13T14:13:56.413Z,23.77
2023-05-13T14:19:00.845Z,23.45
2023-05-13T14:24:03.120Z,24.00
2023-05-13T14:29:05.799Z,24.81
2023-05-13T14:34:09.169Z,24.72
2023-05-13T14:39:11.303Z,24.86
2023-05-13T14:44:13.943Z,24.64
2023-05-13T14:49:17.468Z,24.73
2023-05-13T14:54:19.377Z,25.02
2023-05-13T14:59:21.343Z,24.44
2023-05-13T15:04:24.566Z,24.79
2023-05-13T15:09:26.742Z,25.16
2023-05-13T15:14:29.655Z,24.82
2023-05-13T15:19:32.895Z,24.95
2023-05-13T15:24:35.584Z,24.71
2023-05-13T15:29:37.629Z,25.10
2023-05-13T15:34:41.746Z,24.57
2023-05-13T15:39:44.529Z,25.74
2023-05-13T15:44:47.013Z,25.67
2023-05-13T15:49:50.539Z,26.35
2023-05-13T15:54:52.865Z,25.98
2023-05-13T15:59:55.309Z,24.23
2023-05-13T16:04:58.683Z,24.63
2023-05-13T16:10:01.051Z,22.99
2023-05-13T16:15:04.129Z,22.07
2023-05-13T16:20:11.505Z,21.58
2023-05-13T16:25:14.464Z,20.88
2023-05-13T16:30:16.749Z,20.73
2023-05-13T16:35:21.051Z,21.41
2023-05-13T16:40:23.241Z,21.60
2023-05-13T16:45:25.952Z,22.04
2023-05-13T16:50:30.268Z,22.23
2023-05-13T16:55:32.108Z,22.73
2023-05-13T17:00:33.858Z,22.66
2023-05-13T17:05:37.516Z,22.10
2023-05-13T17:10:40.007Z,21.94
2023-05-13T17:15:42.005Z,21.41
2023-05-13T17:20:45.610Z,21.25
2023-05-13T17:25:47.795Z,20.74
2023-05-13T17:30:50.119Z,20.47
2023-05-13T17:35:53.302Z,20.47
2023-05-13T17:40:55.448Z,20.38
2023-05-13T17:45:57.763Z,20.11
2023-05-13T17:51:01.036Z,19.80
2023-05-13T17:56:04.060Z,19.34
2023-05-13T18:01:05.965Z,18.95
2023-05-13T18:06:09.781Z,18.78
2023-05-13T18:11:11.756Z,18.58
2023-05-13T18:16:14.041Z,18.61
2023-05-13T18:21:17.464Z,18.37
2023-05-13T18:26:19.336Z,18.44
2023-05-13T18:31:21.598Z,18.40
2023-05-13T18:36:24.840Z,18.25
2023-05-13T18:41:26.864Z,18.11
2023-05-13T18:46:29.215Z,17.90
2023-05-13T18:51:32.916Z,17.91
2023-05-13T18:56:35.186Z,17.85
2023-05-13T19:01:37.198Z,17.71
2023-05-13T19:06:40.545Z,17.62
2023-05-13T19:11:43.882Z,17.38
2023-05-13T19:16:46.413Z,17.25
2023-05-13T19:21:49.798Z,17.16
2023-05-13T19:26:51.573Z,17.07
2023-05-13T19:31:53.692Z,17.01
2023-05-13T19:36:57.250Z,16.86
2023-05-13T19:41:59.529Z,16.65
2023-05-13T19:47:02.616Z,16.39
2023-05-13T19:52:06.440Z,16.14
2023-05-13T19:57:08.642Z,15.84
2023-05-13T20:02:10.851Z,15.57
2023-05-13T20:07:13.958Z,15.27
2023-05-13T20:12:16.087Z,14.97
2023-05-13T20:17:19.638Z,14.59
2023-05-13T20:22:23.173Z,14.37
2023-05-13T20:27:24.904Z,14.12
2023-05-13T20:32:27.572Z,13.84
2023-05-13T20:37:31.599Z,13.57
2023-05-13T20:42:33.391Z,13.38
2023-05-13T20:47:35.515Z,13.29
2023-05-13T20:52:39.108Z,13.08
2023-05-13T20:57:41.475Z,13.13
2023-05-13T21:02:43.625Z,13.19
2023-05-13T21:07:47.338Z,13.02
2023-05-13T21:12:49.479Z,12.83
2023-05-13T21:17:51.835Z,12.66
2023-05-13T21:22:55.613Z,12.51
2023-05-13T21:27:57.862Z,12.35
2023-05-13T21:33:00.212Z,12.18
2023-05-13T21:38:11.641Z,12.25
2023-05-13T21:43:15.108Z,12.18
2023-05-13T21:48:17.334Z,12.09
2023-05-13T21:53:20.853Z,11.99
2023-05-13T21:58:23.705Z,11.88
2023-05-13T22:03:25.836Z,11.69
2023-05-13T22:08:29.463Z,11.50
2023-05-13T22:13:31.890Z,11.34
2023-05-13T22:18:34.400Z,11.20
2023-05-13T22:23:38.302Z,11.05
2023-05-13T22:28:40.447Z,11.02
2023-05-13T22:33:42.667Z,10.93
2023-05-13T22:38:46.155Z,10.85
2023-05-13T22:43:47.839Z,10.77
2023-05-13T22:48:49.934Z,10.74
2023-05-13T22:53:53.075Z,10.69
2023-05-13T22:58:55.035Z,10.62
2023-05-13T23:03:57.051Z,10.53
2023-05-13T23:09:00.920Z,10.45
2023-05-13T23:14:02.972Z,10.35
2023-05-13T23:19:05.774Z,10.31
2023-05-13T23:24:09.327Z,10.22
2023-05-13T23:29:11.349Z,10.18
2023-05-13T23:34:13.265Z,10.11
2023-05-13T23:39:16.752Z,10.13
2023-05-13T23:44:18.672Z,10.12
2023-05-13T23:49:21.421Z,10.13
2023-05-13T23:54:24.962Z,10.36
2023-05-13T23:59:26.897Z,10.36
